sensor_id;sensor_type;location;lat;lon;timestamp;pressure;altitude;pressure_sealevel;temperature;humidity
18749;BME280;9503;53.560;10.246;2023-06-24T00:02:10;101649.22;;;22.12;77.21
18749;BME280;9503;53.560;10.246;2023-06-24T00:04:38;101644.81;;;22.09;77.37
18749;BME280;9503;53.560;10.246;2023-06-24T00:07:05;101638.56;;;22.02;77.58
18749;BME280;9503;53.560;10.246;2023-06-24T00:11:59;101642.88;;;21.97;76.80
18749;BME280;9503;53.560;10.246;2023-06-24T00:14:26;101644.56;;;21.95;76.97
18749;BME280;9503;53.560;10.246;2023-06-24T00:16:54;101645.25;;;21.85;76.98
18749;BME280;9503;53.560;10.246;2023-06-24T00:19:23;101640.78;;;21.78;77.26
18749;BME280;9503;53.560;10.246;2023-06-24T00:21:52;101640.69;;;21.72;77.67
18749;BME280;9503;53.560;10.246;2023-06-24T00:24:20;101636.41;;;21.75;77.75
18749;BME280;9503;53.560;10.246;2023-06-24T00:26:50;101639.81;;;21.71;77.23
18749;BME280;9503;53.560;10.246;2023-06-24T00:29:17;101636.97;;;21.59;77.61
18749;BME280;9503;53.560;10.246;2023-06-24T00:31:44;101636.00;;;21.52;77.75
18749;BME280;9503;53.560;10.246;2023-06-24T00:34:10;101638.66;;;21.56;78.20
18749;BME280;9503;53.560;10.246;2023-06-24T00:36:37;101647.34;;;21.55;78.38
18749;BME280;9503;53.560;10.246;2023-06-24T00:39:05;101656.91;;;21.52;77.84
18749;BME280;9503;53.560;10.246;2023-06-24T00:41:33;101659.38;;;21.46;78.21
18749;BME280;9503;53.560;10.246;2023-06-24T00:44:00;101660.88;;;21.34;78.01
18749;BME280;9503;53.560;10.246;2023-06-24T00:46:28;101658.97;;;21.27;77.83
18749;BME280;9503;53.560;10.246;2023-06-24T00:48:58;101656.31;;;21.23;77.77
18749;BME280;9503;53.560;10.246;2023-06-24T00:51:26;101664.88;;;21.16;77.54
18749;BME280;9503;53.560;10.246;2023-06-24T00:53:56;101662.03;;;21.06;77.88
18749;BME280;9503;53.560;10.246;2023-06-24T00:56:27;101658.38;;;20.97;78.22
18749;BME280;9503;53.560;10.246;2023-06-24T00:58:57;101663.56;;;20.94;78.13
18749;BME280;9503;53.560;10.246;2023-06-24T01:01:27;101667.09;;;20.98;78.37
18749;BME280;9503;53.560;10.246;2023-06-24T01:03:57;101654.94;;;20.98;78.44
18749;BME280;9503;53.560;10.246;2023-06-24T01:06:24;101665.31;;;20.95;78.68
18749;BME280;9503;53.560;10.246;2023-06-24T01:08:54;101667.00;;;20.93;78.58
18749;BME280;9503;53.560;10.246;2023-06-24T01:11:22;101656.50;;;20.90;78.44
18749;BME280;9503;53.560;10.246;2023-06-24T01:13:50;101659.91;;;20.86;78.15
18749;BME280;9503;53.560;10.246;2023-06-24T01:16:22;101671.06;;;20.79;78.43
18749;BME280;9503;53.560;10.246;2023-06-24T01:18:57;101681.38;;;20.75;78.60
18749;BME280;9503;53.560;10.246;2023-06-24T01:21:33;101680.53;;;20.77;78.91
18749;BME280;9503;53.560;10.246;2023-06-24T01:24:30;101679.59;;;20.72;78.72
18749;BME280;9503;53.560;10.246;2023-06-24T01:27:16;101679.59;;;20.74;78.78
18749;BME280;9503;53.560;10.246;2023-06-24T01:29:54;101676.00;;;20.68;78.54
18749;BME280;9503;53.560;10.246;2023-06-24T01:32:26;101675.88;;;20.62;78.29
18749;BME280;9503;53.560;10.246;2023-06-24T01:34:57;101677.53;;;20.57;78.40
18749;BME280;9503;53.560;10.246;2023-06-24T01:37:28;101671.19;;;20.48;78.37
18749;BME280;9503;53.560;10.246;2023-06-24T01:40:03;101677.22;;;20.45;78.68
18749;BME280;9503;53.560;10.246;2023-06-24T01:42:35;101682.38;;;20.43;79.13
18749;BME280;9503;53.560;10.246;2023-06-24T01:45:05;101677.06;;;20.39;79.71
18749;BME280;9503;53.560;10.246;2023-06-24T01:47:34;101690.16;;;20.42;79.20
18749;BME280;9503;53.560;10.246;2023-06-24T01:50:03;101688.44;;;20.42;79.43
18749;BME280;9503;53.560;10.246;2023-06-24T01:52:32;101693.66;;;20.42;79.05
18749;BME280;9503;53.560;10.246;2023-06-24T01:55:01;101691.91;;;20.43;78.62
18749;BME280;9503;53.560;10.246;2023-06-24T01:57:31;101696.94;;;20.35;78.36
18749;BME280;9503;53.560;10.246;2023-06-24T02:00:00;101703.75;;;20.29;78.36
18749;BME280;9503;53.560;10.246;2023-06-24T02:02:31;101701.81;;;20.22;78.03
18749;BME280;9503;53.560;10.246;2023-06-24T02:05:01;101703.31;;;20.12;78.24
18749;BME280;9503;53.560;10.246;2023-06-24T02:07:29;101698.09;;;20.12;78.17
18749;BME280;9503;53.560;10.246;2023-06-24T02:09:57;101687.03;;;20.21;77.87
18749;BME280;9503;53.560;10.246;2023-06-24T02:12:26;101687.69;;;20.12;77.96
18749;BME280;9503;53.560;10.246;2023-06-24T02:14:55;101677.75;;;19.97;78.17
18749;BME280;9503;53.560;10.246;2023-06-24T02:17:24;101686.41;;;19.96;78.21
18749;BME280;9503;53.560;10.246;2023-06-24T02:19:51;101687.31;;;19.97;78.38
18749;BME280;9503;53.560;10.246;2023-06-24T02:22:20;101693.19;;;19.90;78.41
18749;BME280;9503;53.560;10.246;2023-06-24T02:24:48;101707.91;;;19.87;78.90
18749;BME280;9503;53.560;10.246;2023-06-24T02:27:16;101701.75;;;19.84;78.66
18749;BME280;9503;53.560;10.246;2023-06-24T02:29:43;101701.00;;;19.90;78.48
18749;BME280;9503;53.560;10.246;2023-06-24T02:32:11;101711.34;;;19.86;78.30
18749;BME280;9503;53.560;10.246;2023-06-24T02:34:39;101699.88;;;19.78;78.13
18749;BME280;9503;53.560;10.246;2023-06-24T02:37:06;101705.91;;;19.77;78.12
18749;BME280;9503;53.560;10.246;2023-06-24T02:39:34;101706.97;;;19.84;78.22
18749;BME280;9503;53.560;10.246;2023-06-24T02:42:03;101710.13;;;19.74;78.37
18749;BME280;9503;53.560;10.246;2023-06-24T02:44:30;101717.06;;;19.73;78.17
18749;BME280;9503;53.560;10.246;2023-06-24T02:46:57;101726.47;;;19.68;78.26
18749;BME280;9503;53.560;10.246;2023-06-24T02:49:25;101712.50;;;19.65;78.52
18749;BME280;9503;53.560;10.246;2023-06-24T02:51:52;101714.00;;;19.56;78.45
18749;BME280;9503;53.560;10.246;2023-06-24T02:54:18;101718.28;;;19.54;78.30
18749;BME280;9503;53.560;10.246;2023-06-24T02:56:47;101724.25;;;19.52;78.89
18749;BME280;9503;53.560;10.246;2023-06-24T02:59:14;101717.28;;;19.51;78.94
18749;BME280;9503;53.560;10.246;2023-06-24T03:01:41;101714.69;;;19.51;79.29
18749;BME280;9503;53.560;10.246;2023-06-24T03:04:11;101724.41;;;19.56;78.97
18749;BME280;9503;53.560;10.246;2023-06-24T03:06:38;101723.72;;;19.62;78.86
18749;BME280;9503;53.560;10.246;2023-06-24T03:09:06;101726.34;;;19.64;78.91
18749;BME280;9503;53.560;10.246;2023-06-24T03:11:40;101726.25;;;19.60;78.61
18749;BME280;9503;53.560;10.246;2023-06-24T03:14:08;101726.09;;;19.54;78.91
18749;BME280;9503;53.560;10.246;2023-06-24T03:16:35;101730.41;;;19.54;78.91
18749;BME280;9503;53.560;10.246;2023-06-24T03:19:03;101728.94;;;19.62;78.80
18749;BME280;9503;53.560;10.246;2023-06-24T03:21:30;101718.53;;;19.62;79.18
18749;BME280;9503;53.560;10.246;2023-06-24T03:23:57;101718.63;;;19.67;79.13
18749;BME280;9503;53.560;10.246;2023-06-24T03:26:25;101723.06;;;19.69;79.33
18749;BME280;9503;53.560;10.246;2023-06-24T03:28:51;101724.88;;;19.73;79.48
18749;BME280;9503;53.560;10.246;2023-06-24T03:31:19;101724.09;;;19.76;79.81
18749;BME280;9503;53.560;10.246;2023-06-24T03:33:48;101729.56;;;19.86;79.67
18749;BME280;9503;53.560;10.246;2023-06-24T03:36:15;101738.41;;;19.93;79.80
18749;BME280;9503;53.560;10.246;2023-06-24T03:38:42;101741.28;;;20.04;79.85
18749;BME280;9503;53.560;10.246;2023-06-24T03:41:08;101738.28;;;20.22;79.92
18749;BME280;9503;53.560;10.246;2023-06-24T03:43:35;101738.47;;;20.29;79.70
18749;BME280;9503;53.560;10.246;2023-06-24T03:46:01;101740.28;;;20.33;79.92
18749;BME280;9503;53.560;10.246;2023-06-24T03:48:29;101741.28;;;20.38;79.78
18749;BME280;9503;53.560;10.246;2023-06-24T03:50:56;101737.09;;;20.43;80.00
18749;BME280;9503;53.560;10.246;2023-06-24T03:53:23;101734.84;;;20.57;79.82
18749;BME280;9503;53.560;10.246;2023-06-24T03:55:50;101741.19;;;20.70;79.87
18749;BME280;9503;53.560;10.246;2023-06-24T03:58:16;101742.53;;;20.90;79.80
18749;BME280;9503;53.560;10.246;2023-06-24T04:00:46;101744.94;;;21.22;79.65
18749;BME280;9503;53.560;10.246;2023-06-24T04:03:14;101742.81;;;21.43;79.28
18749;BME280;9503;53.560;10.246;2023-06-24T04:05:42;101741.63;;;21.73;79.46
18749;BME280;9503;53.560;10.246;2023-06-24T04:08:09;101741.47;;;22.11;79.28
18749;BME280;9503;53.560;10.246;2023-06-24T04:10:36;101751.19;;;22.71;78.29
18749;BME280;9503;53.560;10.246;2023-06-24T04:13:02;101751.09;;;23.27;76.75
18749;BME280;9503;53.560;10.246;2023-06-24T04:15:29;101744.84;;;23.90;74.44
18749;BME280;9503;53.560;10.246;2023-06-24T04:17:55;101747.94;;;24.40;72.00
18749;BME280;9503;53.560;10.246;2023-06-24T04:20:22;101751.88;;;25.08;70.26
18749;BME280;9503;53.560;10.246;2023-06-24T04:22:50;101754.75;;;25.77;68.00
18749;BME280;9503;53.560;10.246;2023-06-24T04:25:17;101748.66;;;26.14;65.20
18749;BME280;9503;53.560;10.246;2023-06-24T04:27:43;101760.97;;;26.41;63.14
18749;BME280;9503;53.560;10.246;2023-06-24T04:30:10;101755.66;;;26.83;62.66
18749;BME280;9503;53.560;10.246;2023-06-24T04:32:37;101756.34;;;27.47;61.15
18749;BME280;9503;53.560;10.246;2023-06-24T04:35:04;101755.44;;;27.47;60.46
18749;BME280;9503;53.560;10.246;2023-06-24T04:37:31;101758.56;;;28.15;60.04
18749;BME280;9503;53.560;10.246;2023-06-24T04:39:59;101767.00;;;28.56;57.95
18749;BME280;9503;53.560;10.246;2023-06-24T04:42:25;101760.69;;;28.73;56.22
18749;BME280;9503;53.560;10.246;2023-06-24T04:44:52;101761.56;;;29.49;56.06
18749;BME280;9503;53.560;10.246;2023-06-24T04:47:19;101755.88;;;29.78;54.94
18749;BME280;9503;53.560;10.246;2023-06-24T04:49:45;101758.94;;;30.60;53.95
18749;BME280;9503;53.560;10.246;2023-06-24T04:52:12;101760.84;;;31.44;51.84
18749;BME280;9503;53.560;10.246;2023-06-24T04:54:39;101766.31;;;31.75;50.95
18749;BME280;9503;53.560;10.246;2023-06-24T04:57:09;101763.47;;;32.20;49.82
18749;BME280;9503;53.560;10.246;2023-06-24T04:59:36;101775.94;;;32.18;49.86
18749;BME280;9503;53.560;10.246;2023-06-24T05:02:03;101766.47;;;31.29;50.94
18749;BME280;9503;53.560;10.246;2023-06-24T05:04:30;101767.78;;;30.06;52.53
18749;BME280;9503;53.560;10.246;2023-06-24T05:06:57;101771.00;;;28.97;54.37
18749;BME280;9503;53.560;10.246;2023-06-24T05:09:23;101758.06;;;29.45;54.61
18749;BME280;9503;53.560;10.246;2023-06-24T05:11:50;101761.44;;;30.18;52.27
18749;BME280;9503;53.560;10.246;2023-06-24T05:14:18;101763.38;;;31.05;50.56
18749;BME280;9503;53.560;10.246;2023-06-24T05:16:44;101759.16;;;32.16;48.80
18749;BME280;9503;53.560;10.246;2023-06-24T05:19:11;101777.72;;;33.17;47.16
18749;BME280;9503;53.560;10.246;2023-06-24T05:21:38;101780.91;;;33.30;46.03
18749;BME280;9503;53.560;10.246;2023-06-24T05:24:05;101777.41;;;32.96;46.42
18749;BME280;9503;53.560;10.246;2023-06-24T05:26:32;101773.50;;;33.41;45.96
18749;BME280;9503;53.560;10.246;2023-06-24T05:28:58;101777.00;;;32.47;46.87
18749;BME280;9503;53.560;10.246;2023-06-24T05:31:26;101774.63;;;32.36;47.30
18749;BME280;9503;53.560;10.246;2023-06-24T05:33:53;101757.53;;;32.10;48.13
18749;BME280;9503;53.560;10.246;2023-06-24T05:36:19;101754.50;;;31.08;49.23
18749;BME280;9503;53.560;10.246;2023-06-24T05:38:46;101747.56;;;30.02;51.09
18749;BME280;9503;53.560;10.246;2023-06-24T05:41:13;101749.50;;;29.28;51.93
18749;BME280;9503;53.560;10.246;2023-06-24T05:43:42;101754.91;;;28.32;53.59
18749;BME280;9503;53.560;10.246;2023-06-24T05:46:09;101743.75;;;27.98;55.02
18749;BME280;9503;53.560;10.246;2023-06-24T05:48:39;101736.22;;;27.33;55.77
18749;BME280;9503;53.560;10.246;2023-06-24T05:51:07;101729.41;;;26.17;58.48
18749;BME280;9503;53.560;10.246;2023-06-24T05:53:34;101728.44;;;26.91;57.63
18749;BME280;9503;53.560;10.246;2023-06-24T05:56:00;101737.28;;;26.55;57.83
18749;BME280;9503;53.560;10.246;2023-06-24T05:58:27;101732.91;;;26.24;59.67
18749;BME280;9503;53.560;10.246;2023-06-24T06:00:54;101731.16;;;26.33;59.54
18749;BME280;9503;53.560;10.246;2023-06-24T06:03:21;101738.16;;;26.19;60.12
18749;BME280;9503;53.560;10.246;2023-06-24T06:05:48;101753.88;;;26.92;58.40
18749;BME280;9503;53.560;10.246;2023-06-24T06:08:15;101763.41;;;27.36;56.15
18749;BME280;9503;53.560;10.246;2023-06-24T06:10:42;101756.56;;;26.74;57.10
18749;BME280;9503;53.560;10.246;2023-06-24T06:13:08;101757.41;;;26.90;57.48
18749;BME280;9503;53.560;10.246;2023-06-24T06:15:35;101771.47;;;26.72;58.36
18749;BME280;9503;53.560;10.246;2023-06-24T06:18:02;101768.84;;;26.66;58.27
18749;BME280;9503;53.560;10.246;2023-06-24T06:20:28;101767.09;;;26.65;58.68
18749;BME280;9503;53.560;10.246;2023-06-24T06:22:56;101767.97;;;26.30;59.30
18749;BME280;9503;53.560;10.246;2023-06-24T06:25:23;101775.88;;;26.49;59.29
18749;BME280;9503;53.560;10.246;2023-06-24T06:27:50;101775.88;;;26.30;59.18
18749;BME280;9503;53.560;10.246;2023-06-24T06:30:16;101779.38;;;26.63;58.56
18749;BME280;9503;53.560;10.246;2023-06-24T06:32:43;101781.16;;;26.49;58.22
18749;BME280;9503;53.560;10.246;2023-06-24T06:35:10;101781.09;;;25.87;59.31
18749;BME280;9503;53.560;10.246;2023-06-24T06:37:37;101781.97;;;25.94;59.38
18749;BME280;9503;53.560;10.246;2023-06-24T06:40:06;101774.97;;;26.01;59.22
18749;BME280;9503;53.560;10.246;2023-06-24T06:42:33;101781.13;;;26.18;58.46
18749;BME280;9503;53.560;10.246;2023-06-24T06:44:59;101777.63;;;26.37;57.84
18749;BME280;9503;53.560;10.246;2023-06-24T06:47:26;101784.59;;;25.99;59.15
18749;BME280;9503;53.560;10.246;2023-06-24T06:49:53;101783.72;;;25.89;58.19
18749;BME280;9503;53.560;10.246;2023-06-24T06:52:19;101782.88;;;26.37;57.53
18749;BME280;9503;53.560;10.246;2023-06-24T06:54:46;101783.78;;;26.52;56.75
18749;BME280;9503;53.560;10.246;2023-06-24T06:57:14;101784.63;;;26.70;56.98
18749;BME280;9503;53.560;10.246;2023-06-24T06:59:41;101774.13;;;26.43;57.34
18749;BME280;9503;53.560;10.246;2023-06-24T07:02:07;101784.63;;;26.63;58.08
18749;BME280;9503;53.560;10.246;2023-06-24T07:04:34;101785.50;;;26.11;57.30
18749;BME280;9503;53.560;10.246;2023-06-24T07:07:01;101783.78;;;26.53;57.04
18749;BME280;9503;53.560;10.246;2023-06-24T07:09:27;101782.84;;;26.79;55.76
18749;BME280;9503;53.560;10.246;2023-06-24T07:11:54;101785.53;;;26.54;56.72
18749;BME280;9503;53.560;10.246;2023-06-24T07:14:22;101782.00;;;26.83;55.82
18749;BME280;9503;53.560;10.246;2023-06-24T07:16:49;101781.09;;;26.85;55.58
18749;BME280;9503;53.560;10.246;2023-06-24T07:19:15;101780.19;;;26.97;56.11
18749;BME280;9503;53.560;10.246;2023-06-24T07:21:42;101787.25;;;26.80;55.61
18749;BME280;9503;53.560;10.246;2023-06-24T07:24:09;101789.91;;;26.64;55.02
18749;BME280;9503;53.560;10.246;2023-06-24T07:26:36;101786.34;;;26.90;54.90
18749;BME280;9503;53.560;10.246;2023-06-24T07:29:05;101786.41;;;26.50;55.40
18749;BME280;9503;53.560;10.246;2023-06-24T07:31:33;101797.78;;;26.69;55.94
18749;BME280;9503;53.560;10.246;2023-06-24T07:34:00;101794.25;;;26.04;57.03
18749;BME280;9503;53.560;10.246;2023-06-24T07:36:27;101790.75;;;26.77;55.12
18749;BME280;9503;53.560;10.246;2023-06-24T07:38:53;101796.91;;;26.30;55.99
18749;BME280;9503;53.560;10.246;2023-06-24T07:41:20;101796.88;;;26.79;54.93
18749;BME280;9503;53.560;10.246;2023-06-24T07:43:46;101791.59;;;26.99;55.15
18749;BME280;9503;53.560;10.246;2023-06-24T07:46:13;101792.50;;;26.89;54.99
18749;BME280;9503;53.560;10.246;2023-06-24T07:48:41;101804.78;;;26.81;55.94
18749;BME280;9503;53.560;10.246;2023-06-24T07:51:08;101796.81;;;27.23;54.89
18749;BME280;9503;53.560;10.246;2023-06-24T07:53:35;101802.13;;;27.07;55.03
18749;BME280;9503;53.560;10.246;2023-06-24T07:56:02;101798.50;;;27.44;54.92
18749;BME280;9503;53.560;10.246;2023-06-24T07:58:28;101802.06;;;27.28;55.14
18749;BME280;9503;53.560;10.246;2023-06-24T08:00:55;101807.44;;;26.70;57.07
18749;BME280;9503;53.560;10.246;2023-06-24T08:03:21;101802.13;;;27.11;55.23
18749;BME280;9503;53.560;10.246;2023-06-24T08:05:49;101794.91;;;27.59;54.17
18749;BME280;9503;53.560;10.246;2023-06-24T08:08:16;101792.94;;;28.01;53.76
18749;BME280;9503;53.560;10.246;2023-06-24T08:10:44;101789.31;;;28.13;52.06
18749;BME280;9503;53.560;10.246;2023-06-24T08:13:11;101795.38;;;28.27;51.32
18749;BME280;9503;53.560;10.246;2023-06-24T08:15:38;101800.59;;;28.38;51.16
18749;BME280;9503;53.560;10.246;2023-06-24T08:18:04;101791.38;;;27.69;52.69
18749;BME280;9503;53.560;10.246;2023-06-24T08:20:31;101794.88;;;27.64;53.69
18749;BME280;9503;53.560;10.246;2023-06-24T08:22:59;101792.44;;;27.03;54.43
18749;BME280;9503;53.560;10.246;2023-06-24T08:25:26;101797.75;;;26.93;54.99
18749;BME280;9503;53.560;10.246;2023-06-24T08:27:52;101786.88;;;27.84;53.30
18749;BME280;9503;53.560;10.246;2023-06-24T08:30:19;101789.63;;;27.61;53.47
18749;BME280;9503;53.560;10.246;2023-06-24T08:32:45;101786.91;;;27.85;53.43
18749;BME280;9503;53.560;10.246;2023-06-24T08:35:12;101783.44;;;27.74;52.33
18749;BME280;9503;53.560;10.246;2023-06-24T08:37:39;101783.22;;;28.04;51.46
18749;BME280;9503;53.560;10.246;2023-06-24T08:40:08;101777.81;;;28.23;50.95
18749;BME280;9503;53.560;10.246;2023-06-24T08:42:35;101777.22;;;27.86;53.09
18749;BME280;9503;53.560;10.246;2023-06-24T08:45:01;101779.72;;;28.02;54.16
18749;BME280;9503;53.560;10.246;2023-06-24T08:47:28;101782.06;;;28.42;52.73
18749;BME280;9503;53.560;10.246;2023-06-24T08:50:01;101778.06;;;27.88;54.47
18749;BME280;9503;53.560;10.246;2023-06-24T08:52:32;101775.59;;;27.62;55.33
18749;BME280;9503;53.560;10.246;2023-06-24T08:55:02;101775.84;;;28.49;53.36
18749;BME280;9503;53.560;10.246;2023-06-24T08:57:31;101779.03;;;27.77;54.44
18749;BME280;9503;53.560;10.246;2023-06-24T08:59:57;101777.41;;;27.47;54.69
18749;BME280;9503;53.560;10.246;2023-06-24T09:02:24;101776.47;;;27.53;54.68
18749;BME280;9503;53.560;10.246;2023-06-24T09:04:51;101775.78;;;27.14;55.56
18749;BME280;9503;53.560;10.246;2023-06-24T09:07:25;101778.28;;;27.43;54.71
18749;BME280;9503;53.560;10.246;2023-06-24T09:09:52;101778.94;;;27.88;53.88
18749;BME280;9503;53.560;10.246;2023-06-24T09:12:19;101783.94;;;28.29;53.20
18749;BME280;9503;53.560;10.246;2023-06-24T09:14:49;101785.38;;;28.67;52.05
18749;BME280;9503;53.560;10.246;2023-06-24T09:17:17;101796.72;;;28.75;52.56
18749;BME280;9503;53.560;10.246;2023-06-24T09:19:44;101798.78;;;28.41;53.06
18749;BME280;9503;53.560;10.246;2023-06-24T09:22:10;101795.88;;;28.72;52.76
18749;BME280;9503;53.560;10.246;2023-06-24T09:24:43;101793.97;;;28.86;53.51
18749;BME280;9503;53.560;10.246;2023-06-24T09:27:12;101796.91;;;28.58;53.03
18749;BME280;9503;53.560;10.246;2023-06-24T09:29:41;101789.38;;;29.09;51.74
18749;BME280;9503;53.560;10.246;2023-06-24T09:32:10;101793.31;;;28.64;52.91
18749;BME280;9503;53.560;10.246;2023-06-24T09:34:37;101786.63;;;29.15;51.07
18749;BME280;9503;53.560;10.246;2023-06-24T09:37:04;101784.63;;;29.36;50.09
18749;BME280;9503;53.560;10.246;2023-06-24T09:39:36;101789.59;;;28.83;52.87
18749;BME280;9503;53.560;10.246;2023-06-24T09:42:04;101785.19;;;28.87;53.02
18749;BME280;9503;53.560;10.246;2023-06-24T09:44:33;101787.09;;;29.51;51.13
18749;BME280;9503;53.560;10.246;2023-06-24T09:47:00;101782.75;;;28.67;52.30
18749;BME280;9503;53.560;10.246;2023-06-24T09:49:28;101783.56;;;28.71;53.16
18749;BME280;9503;53.560;10.246;2023-06-24T09:51:56;101770.19;;;28.86;52.74
18749;BME280;9503;53.560;10.246;2023-06-24T09:54:25;101778.78;;;29.11;51.58
18749;BME280;9503;53.560;10.246;2023-06-24T09:56:53;101771.13;;;29.60;50.27
18749;BME280;9503;53.560;10.246;2023-06-24T09:59:20;101772.91;;;30.17;49.19
18749;BME280;9503;53.560;10.246;2023-06-24T10:01:49;101778.75;;;29.12;51.05
18749;BME280;9503;53.560;10.246;2023-06-24T10:04:17;101774.22;;;29.88;49.38
18749;BME280;9503;53.560;10.246;2023-06-24T10:06:46;101772.47;;;30.44;48.97
18749;BME280;9503;53.560;10.246;2023-06-24T10:09:13;101768.19;;;31.31;47.44
18749;BME280;9503;53.560;10.246;2023-06-24T10:11:42;101769.69;;;31.00;46.70
18749;BME280;9503;53.560;10.246;2023-06-24T10:14:09;101760.69;;;32.26;45.89
18749;BME280;9503;53.560;10.246;2023-06-24T10:16:36;101753.53;;;31.93;45.73
18749;BME280;9503;53.560;10.246;2023-06-24T10:19:03;101762.13;;;32.72;44.97
18749;BME280;9503;53.560;10.246;2023-06-24T10:21:47;101761.63;;;32.58;44.41
18749;BME280;9503;53.560;10.246;2023-06-24T10:24:28;101756.72;;;32.07;44.60
18749;BME280;9503;53.560;10.246;2023-06-24T10:26:55;101753.50;;;33.28;44.08
18749;BME280;9503;53.560;10.246;2023-06-24T10:29:34;101760.13;;;33.72;43.31
18749;BME280;9503;53.560;10.246;2023-06-24T10:32:03;101751.84;;;32.60;44.63
18749;BME280;9503;53.560;10.246;2023-06-24T10:34:34;101753.56;;;33.24;43.31
18749;BME280;9503;53.560;10.246;2023-06-24T10:37:09;101749.47;;;34.00;43.08
18749;BME280;9503;53.560;10.246;2023-06-24T10:39:37;101755.13;;;33.89;43.34
18749;BME280;9503;53.560;10.246;2023-06-24T10:42:25;101748.19;;;33.57;44.75
18749;BME280;9503;53.560;10.246;2023-06-24T10:44:54;101741.72;;;33.94;42.96
18749;BME280;9503;53.560;10.246;2023-06-24T10:47:21;101749.44;;;34.01;44.02
18749;BME280;9503;53.560;10.246;2023-06-24T10:49:48;101743.94;;;34.57;41.65
18749;BME280;9503;53.560;10.246;2023-06-24T10:52:18;101745.69;;;34.83;42.08
18749;BME280;9503;53.560;10.246;2023-06-24T10:54:45;101741.47;;;34.26;43.23
18749;BME280;9503;53.560;10.246;2023-06-24T10:57:12;101735.41;;;33.96;43.79
18749;BME280;9503;53.560;10.246;2023-06-24T10:59:40;101732.34;;;33.80;43.70
18749;BME280;9503;53.560;10.246;2023-06-24T11:02:07;101730.88;;;33.98;43.72
18749;BME280;9503;53.560;10.246;2023-06-24T11:04:42;101728.19;;;34.76;42.47
18749;BME280;9503;53.560;10.246;2023-06-24T11:07:09;101717.09;;;34.63;42.42
18749;BME280;9503;53.560;10.246;2023-06-24T11:09:37;101728.56;;;35.59;42.54
18749;BME280;9503;53.560;10.246;2023-06-24T11:12:04;101727.53;;;35.41;41.78
18749;BME280;9503;53.560;10.246;2023-06-24T11:14:32;101718.66;;;35.39;40.98
18749;BME280;9503;53.560;10.246;2023-06-24T11:17:00;101719.94;;;35.75;41.67
18749;BME280;9503;53.560;10.246;2023-06-24T11:21:58;101715.16;;;35.15;42.11
18749;BME280;9503;53.560;10.246;2023-06-24T11:24:25;101710.41;;;35.00;41.75
18749;BME280;9503;53.560;10.246;2023-06-24T11:26:53;101710.97;;;35.55;41.19
18749;BME280;9503;53.560;10.246;2023-06-24T11:29:20;101714.69;;;36.15;40.84
18749;BME280;9503;53.560;10.246;2023-06-24T11:31:48;101709.16;;;35.78;41.30
18749;BME280;9503;53.560;10.246;2023-06-24T11:34:15;101707.59;;;34.30;42.83
18749;BME280;9503;53.560;10.246;2023-06-24T11:36:41;101707.66;;;35.25;40.80
18749;BME280;9503;53.560;10.246;2023-06-24T11:39:08;101709.00;;;34.90;40.60
18749;BME280;9503;53.560;10.246;2023-06-24T11:41:36;101709.41;;;34.29;41.89
18749;BME280;9503;53.560;10.246;2023-06-24T11:44:05;101701.50;;;35.01;41.76
18749;BME280;9503;53.560;10.246;2023-06-24T11:46:33;101706.53;;;34.35;42.14
18749;BME280;9503;53.560;10.246;2023-06-24T11:49:04;101704.34;;;34.72;41.98
18749;BME280;9503;53.560;10.246;2023-06-24T11:51:31;101700.91;;;34.93;41.74
18749;BME280;9503;53.560;10.246;2023-06-24T11:53:59;101697.31;;;34.46;42.02
18749;BME280;9503;53.560;10.246;2023-06-24T11:56:34;101699.22;;;34.42;41.53
18749;BME280;9503;53.560;10.246;2023-06-24T11:59:03;101688.41;;;34.47;42.55
18749;BME280;9503;53.560;10.246;2023-06-24T12:01:31;101685.25;;;35.07;41.62
18749;BME280;9503;53.560;10.246;2023-06-24T12:03:59;101687.72;;;34.65;41.98
18749;BME280;9503;53.560;10.246;2023-06-24T12:06:26;101679.13;;;35.05;41.46
18749;BME280;9503;53.560;10.246;2023-06-24T12:08:53;101680.19;;;35.89;40.68
18749;BME280;9503;53.560;10.246;2023-06-24T12:11:19;101678.81;;;34.89;42.27
18749;BME280;9503;53.560;10.246;2023-06-24T12:13:46;101678.06;;;34.86;41.78
18749;BME280;9503;53.560;10.246;2023-06-24T12:16:13;101685.47;;;35.90;41.69
18749;BME280;9503;53.560;10.246;2023-06-24T12:18:41;101680.16;;;36.91;39.29
18749;BME280;9503;53.560;10.246;2023-06-24T12:21:07;101678.50;;;37.07;39.60
18749;BME280;9503;53.560;10.246;2023-06-24T12:23:34;101684.44;;;36.95;40.03
18749;BME280;9503;53.560;10.246;2023-06-24T12:26:00;101681.31;;;36.65;39.83
18749;BME280;9503;53.560;10.246;2023-06-24T12:28:27;101675.97;;;37.04;39.80
18749;BME280;9503;53.560;10.246;2023-06-24T12:30:54;101688.03;;;36.34;40.15
18749;BME280;9503;53.560;10.246;2023-06-24T12:33:20;101672.91;;;37.30;38.40
18749;BME280;9503;53.560;10.246;2023-06-24T12:35:49;101684.53;;;37.29;39.04
18749;BME280;9503;53.560;10.246;2023-06-24T12:38:16;101687.16;;;37.12;38.93
18749;BME280;9503;53.560;10.246;2023-06-24T12:40:43;101684.31;;;37.53;39.23
18749;BME280;9503;53.560;10.246;2023-06-24T12:43:10;101691.81;;;38.00;38.81
18749;BME280;9503;53.560;10.246;2023-06-24T12:45:37;101680.66;;;37.37;38.96
18749;BME280;9503;53.560;10.246;2023-06-24T12:48:04;101680.97;;;35.92;39.89
18749;BME280;9503;53.560;10.246;2023-06-24T12:50:31;101672.34;;;35.64;41.76
18749;BME280;9503;53.560;10.246;2023-06-24T12:52:59;101673.97;;;35.88;40.11
18749;BME280;9503;53.560;10.246;2023-06-24T12:55:26;101673.97;;;35.46;40.93
18749;BME280;9503;53.560;10.246;2023-06-24T12:57:52;101667.81;;;36.29;41.02
18749;BME280;9503;53.560;10.246;2023-06-24T13:00:19;101664.66;;;36.78;40.29